Lanzarote > ESTACION METEOROLÓGICA Famara - Teguise

DATOS ACTUALES Online

Ultima actulizacion 12 minutos

21.3 ºC

Temperatura

90

Humedad (%)

1012.61

Presión (mb)

2.2

Precipitación (mm)

15.7 NW

Viento (Km/h)

DATOS DIARIOS

Temperatura últimas 24 horas (ºC)

Humedad últimas 24 horas (%)

Presión atmosférica últimas 24 horas (mb)

Precipitaciones últimas 23 horas (mm)

Viento últimas 24 horas (Km/h)

Hora Temperatura (°C) ºC Precipitación (mm) mm Presión (mb) mb Humedad (%) % Viento (Km/h) km/h
24 - 23:00 23.1 0 1014 83 25.1 O
25 - 00:00 23.2 0 1014 78 21.8 SO
25 - 01:00 23.5 0 1014 79 19.5 O
25 - 02:00 23 0 1013 84 19.9 O
25 - 03:00 22.8 0 1013 85 22.2 O
25 - 04:00 22.9 0 1013 85 15.4 O
25 - 05:00 22.9 0 1013 85 13.1 NO
25 - 06:00 23 0 1013 86 15.1 O
25 - 07:00 22.9 0 1013 85 15.1 O
25 - 08:00 23.2 0 1014 85 17.2 O
25 - 09:00 23.2 0 1015 84 21.3 O
25 - 10:00 23.2 0.1 1015 85 27.4 O
25 - 11:00 23.2 0.2 1015 85 23.3 O
25 - 12:00 23.3 0.2 1015 85 23.5 O
25 - 13:00 23.1 0.3 1014 87 28.8 O
25 - 14:00 22.8 0.6 1013 88 33.8 O
25 - 15:00 22.6 0.8 1012 86 38.1 O
25 - 16:00 22.7 1.1 1013 83 29 O
25 - 17:00 22.7 1.4 1013 86 23.8 O
25 - 18:00 22.5 1.7 1013 84 19 SO
25 - 19:00 21.8 1.9 1013 87 10.9 W
25 - 20:00 21.5 2.1 1014 90 12.4 NW
25 - 21:00 21.2 2.2 1013 91 8 NW
25 - 22:00 21.3 2.2 1013 90 15.7 NW
25 - 23:00
Apalmet utiliza cookies propias y de terceros para mejorar la usabilidad y la experiencia web. Política de cookies.